sensor_id;sensor_type;location;lat;lon;timestamp;pressure;altitude;pressure_sealevel;temperature;humidity
48156;BME280;35568;48.104;11.782;2023-02-01T00:01:30;95895.54;;;3.28;45.10
48156;BME280;35568;48.104;11.782;2023-02-01T00:03:57;95902.01;;;3.53;45.06
48156;BME280;35568;48.104;11.782;2023-02-01T00:06:24;95892.51;;;3.50;44.77
48156;BME280;35568;48.104;11.782;2023-02-01T00:08:52;95894.31;;;3.39;45.00
48156;BME280;35568;48.104;11.782;2023-02-01T00:11:20;95893.77;;;3.16;45.11
48156;BME280;35568;48.104;11.782;2023-02-01T00:13:48;95884.52;;;3.34;45.05
48156;BME280;35568;48.104;11.782;2023-02-01T00:16:16;95890.16;;;3.36;44.61
48156;BME280;35568;48.104;11.782;2023-02-01T00:18:44;95877.58;;;3.17;44.94
48156;BME280;35568;48.104;11.782;2023-02-01T00:21:12;95880.28;;;3.35;44.64
48156;BME280;35568;48.104;11.782;2023-02-01T00:23:39;95878.66;;;3.81;44.25
48156;BME280;35568;48.104;11.782;2023-02-01T00:26:07;95881.40;;;3.48;43.91
48156;BME280;35568;48.104;11.782;2023-02-01T00:28:34;95874.89;;;3.41;43.84
48156;BME280;35568;48.104;11.782;2023-02-01T00:31:03;95871.42;;;3.66;43.86
48156;BME280;35568;48.104;11.782;2023-02-01T00:33:31;95872.19;;;3.61;43.55
48156;BME280;35568;48.104;11.782;2023-02-01T00:35:59;95863.64;;;3.40;43.80
48156;BME280;35568;48.104;11.782;2023-02-01T00:38:26;95865.07;;;3.49;43.69
48156;BME280;35568;48.104;11.782;2023-02-01T00:40:54;95864.90;;;3.64;43.67
48156;BME280;35568;48.104;11.782;2023-02-01T00:43:21;95863.52;;;3.86;43.23
48156;BME280;35568;48.104;11.782;2023-02-01T00:45:48;95865.92;;;3.87;43.29
48156;BME280;35568;48.104;11.782;2023-02-01T00:48:15;95865.09;;;3.83;43.54
48156;BME280;35568;48.104;11.782;2023-02-01T00:50:42;95862.15;;;3.98;43.07
48156;BME280;35568;48.104;11.782;2023-02-01T00:53:09;95864.38;;;3.86;42.98
48156;BME280;35568;48.104;11.782;2023-02-01T00:55:37;95868.34;;;4.17;43.54
48156;BME280;35568;48.104;11.782;2023-02-01T00:58:04;95867.75;;;3.51;45.15
48156;BME280;35568;48.104;11.782;2023-02-01T01:00:31;95872.01;;;3.49;46.46
48156;BME280;35568;48.104;11.782;2023-02-01T01:02:58;95859.80;;;3.25;47.43
48156;BME280;35568;48.104;11.782;2023-02-01T01:05:25;95860.93;;;3.08;48.23
48156;BME280;35568;48.104;11.782;2023-02-01T01:07:51;95864.32;;;3.08;48.78
48156;BME280;35568;48.104;11.782;2023-02-01T01:10:19;95863.06;;;2.94;49.63
48156;BME280;35568;48.104;11.782;2023-02-01T01:12:45;95865.70;;;2.88;49.71
48156;BME280;35568;48.104;11.782;2023-02-01T01:15:12;95861.43;;;2.61;51.13
48156;BME280;35568;48.104;11.782;2023-02-01T01:17:39;95863.32;;;2.26;51.70
48156;BME280;35568;48.104;11.782;2023-02-01T01:20:07;95857.17;;;2.54;52.12
48156;BME280;35568;48.104;11.782;2023-02-01T01:22:35;95856.95;;;1.87;52.77
48156;BME280;35568;48.104;11.782;2023-02-01T01:25:02;95856.21;;;2.02;52.51
48156;BME280;35568;48.104;11.782;2023-02-01T01:27:28;95853.30;;;2.69;51.73
48156;BME280;35568;48.104;11.782;2023-02-01T01:29:55;95853.31;;;2.35;51.58
48156;BME280;35568;48.104;11.782;2023-02-01T01:32:22;95847.12;;;2.36;51.70
48156;BME280;35568;48.104;11.782;2023-02-01T01:34:49;95846.39;;;2.59;51.40
48156;BME280;35568;48.104;11.782;2023-02-01T01:37:16;95840.61;;;2.28;51.85
48156;BME280;35568;48.104;11.782;2023-02-01T01:39:43;95835.34;;;2.26;51.85
48156;BME280;35568;48.104;11.782;2023-02-01T01:42:11;95836.13;;;2.11;51.82
48156;BME280;35568;48.104;11.782;2023-02-01T01:44:59;95836.27;;;2.47;51.55
48156;BME280;35568;48.104;11.782;2023-02-01T01:47:30;95835.00;;;2.44;51.51
48156;BME280;35568;48.104;11.782;2023-02-01T01:49:58;95830.96;;;2.68;51.58
48156;BME280;35568;48.104;11.782;2023-02-01T01:52:25;95825.17;;;2.83;51.36
48156;BME280;35568;48.104;11.782;2023-02-01T01:54:53;95816.57;;;2.90;51.30
48156;BME280;35568;48.104;11.782;2023-02-01T01:57:24;95809.04;;;2.48;51.93
48156;BME280;35568;48.104;11.782;2023-02-01T01:59:59;95803.90;;;2.45;52.30
48156;BME280;35568;48.104;11.782;2023-02-01T02:02:28;95797.82;;;2.13;52.96
48156;BME280;35568;48.104;11.782;2023-02-01T02:04:55;95795.76;;;2.10;53.29
48156;BME280;35568;48.104;11.782;2023-02-01T02:07:26;95797.39;;;2.25;53.03
48156;BME280;35568;48.104;11.782;2023-02-01T02:09:55;95794.62;;;2.37;52.88
48156;BME280;35568;48.104;11.782;2023-02-01T02:12:22;95793.11;;;2.71;52.77
48156;BME280;35568;48.104;11.782;2023-02-01T02:14:49;95793.84;;;2.16;53.08
48156;BME280;35568;48.104;11.782;2023-02-01T02:17:28;95794.15;;;2.76;53.10
48156;BME280;35568;48.104;11.782;2023-02-01T02:21:10;95796.86;;;2.33;53.15
48156;BME280;35568;48.104;11.782;2023-02-01T02:23:56;95792.63;;;2.18;53.17
48156;BME280;35568;48.104;11.782;2023-02-01T02:26:51;95798.52;;;2.23;53.13
48156;BME280;35568;48.104;11.782;2023-02-01T02:29:42;95805.99;;;2.66;52.79
48156;BME280;35568;48.104;11.782;2023-02-01T02:32:35;95804.30;;;2.50;52.76
48156;BME280;35568;48.104;11.782;2023-02-01T02:35:13;95810.14;;;2.55;53.13
48156;BME280;35568;48.104;11.782;2023-02-01T02:37:50;95816.59;;;2.32;53.10
48156;BME280;35568;48.104;11.782;2023-02-01T02:40:25;95820.90;;;2.64;53.03
48156;BME280;35568;48.104;11.782;2023-02-01T02:43:01;95823.71;;;2.62;52.65
48156;BME280;35568;48.104;11.782;2023-02-01T02:45:39;95819.21;;;2.94;52.38
48156;BME280;35568;48.104;11.782;2023-02-01T02:48:13;95809.92;;;2.53;52.55
48156;BME280;35568;48.104;11.782;2023-02-01T02:50:46;95805.68;;;2.57;52.59
48156;BME280;35568;48.104;11.782;2023-02-01T02:53:20;95804.98;;;2.67;52.33
48156;BME280;35568;48.104;11.782;2023-02-01T02:55:51;95800.29;;;2.61;52.39
48156;BME280;35568;48.104;11.782;2023-02-01T02:58:19;95798.65;;;2.75;52.23
48156;BME280;35568;48.104;11.782;2023-02-01T03:00:48;95799.36;;;2.77;52.20
48156;BME280;35568;48.104;11.782;2023-02-01T03:03:16;95792.59;;;2.78;52.05
48156;BME280;35568;48.104;11.782;2023-02-01T03:05:45;95793.03;;;2.66;52.39
48156;BME280;35568;48.104;11.782;2023-02-01T03:08:13;95791.06;;;2.82;52.01
48156;BME280;35568;48.104;11.782;2023-02-01T03:10:47;95793.06;;;2.73;52.13
48156;BME280;35568;48.104;11.782;2023-02-01T03:13:19;95794.78;;;2.72;52.23
48156;BME280;35568;48.104;11.782;2023-02-01T03:15:53;95792.82;;;2.65;52.24
48156;BME280;35568;48.104;11.782;2023-02-01T03:18:28;95788.68;;;2.41;52.56
48156;BME280;35568;48.104;11.782;2023-02-01T03:20:57;95783.09;;;2.78;51.91
48156;BME280;35568;48.104;11.782;2023-02-01T03:23:28;95783.74;;;2.92;51.69
48156;BME280;35568;48.104;11.782;2023-02-01T03:25:58;95787.72;;;2.52;52.09
48156;BME280;35568;48.104;11.782;2023-02-01T03:28:28;95773.70;;;2.45;52.04
48156;BME280;35568;48.104;11.782;2023-02-01T03:30:57;95784.47;;;2.37;52.26
48156;BME280;35568;48.104;11.782;2023-02-01T03:33:25;95784.51;;;2.64;51.94
48156;BME280;35568;48.104;11.782;2023-02-01T03:36:01;95775.59;;;2.90;51.78
48156;BME280;35568;48.104;11.782;2023-02-01T03:38:32;95777.46;;;2.75;51.37
48156;BME280;35568;48.104;11.782;2023-02-01T03:41:05;95771.98;;;3.05;50.94
48156;BME280;35568;48.104;11.782;2023-02-01T03:43:38;95775.27;;;3.22;50.83
48156;BME280;35568;48.104;11.782;2023-02-01T03:46:12;95767.85;;;3.09;50.89
48156;BME280;35568;48.104;11.782;2023-02-01T03:48:43;95769.66;;;3.04;50.80
48156;BME280;35568;48.104;11.782;2023-02-01T03:51:11;95764.11;;;2.71;51.01
48156;BME280;35568;48.104;11.782;2023-02-01T03:53:40;95763.58;;;2.85;50.63
48156;BME280;35568;48.104;11.782;2023-02-01T03:56:08;95757.10;;;2.88;51.01
48156;BME280;35568;48.104;11.782;2023-02-01T03:58:36;95752.35;;;2.85;50.85
48156;BME280;35568;48.104;11.782;2023-02-01T04:03:01;95750.86;;;2.97;50.88
48156;BME280;35568;48.104;11.782;2023-02-01T04:05:29;95746.06;;;3.10;50.47
48156;BME280;35568;48.104;11.782;2023-02-01T04:07:56;95738.44;;;2.85;50.60
48156;BME280;35568;48.104;11.782;2023-02-01T04:10:24;95737.80;;;3.00;50.60
48156;BME280;35568;48.104;11.782;2023-02-01T04:12:51;95742.60;;;2.96;50.57
48156;BME280;35568;48.104;11.782;2023-02-01T04:15:18;95747.06;;;2.77;50.74
48156;BME280;35568;48.104;11.782;2023-02-01T04:17:46;95753.32;;;2.67;51.07
48156;BME280;35568;48.104;11.782;2023-02-01T04:20:13;95755.35;;;2.71;50.77
48156;BME280;35568;48.104;11.782;2023-02-01T04:22:39;95756.12;;;2.25;51.45
48156;BME280;35568;48.104;11.782;2023-02-01T04:25:07;95751.96;;;2.32;51.38
48156;BME280;35568;48.104;11.782;2023-02-01T04:27:34;95749.75;;;2.53;51.05
48156;BME280;35568;48.104;11.782;2023-02-01T04:30:01;95749.17;;;2.93;50.58
48156;BME280;35568;48.104;11.782;2023-02-01T04:32:28;95749.92;;;2.65;50.60
48156;BME280;35568;48.104;11.782;2023-02-01T04:34:55;95758.38;;;2.76;50.54
48156;BME280;35568;48.104;11.782;2023-02-01T04:37:22;95749.46;;;3.01;50.18
48156;BME280;35568;48.104;11.782;2023-02-01T04:39:48;95750.12;;;2.75;50.15
48156;BME280;35568;48.104;11.782;2023-02-01T04:42:15;95745.63;;;2.46;50.72
48156;BME280;35568;48.104;11.782;2023-02-01T04:44:42;95747.97;;;2.65;51.10
48156;BME280;35568;48.104;11.782;2023-02-01T04:47:09;95744.65;;;2.62;50.82
48156;BME280;35568;48.104;11.782;2023-02-01T04:49:36;95743.08;;;2.71;50.53
48156;BME280;35568;48.104;11.782;2023-02-01T04:52:03;95742.67;;;2.67;50.21
48156;BME280;35568;48.104;11.782;2023-02-01T04:54:31;95750.76;;;2.67;49.84
48156;BME280;35568;48.104;11.782;2023-02-01T04:56:58;95764.24;;;3.01;49.76
48156;BME280;35568;48.104;11.782;2023-02-01T04:59:24;95759.22;;;2.99;49.42
48156;BME280;35568;48.104;11.782;2023-02-01T05:01:51;95753.03;;;2.94;49.52
48156;BME280;35568;48.104;11.782;2023-02-01T05:04:18;95753.18;;;2.77;49.97
48156;BME280;35568;48.104;11.782;2023-02-01T05:06:45;95745.81;;;2.71;49.63
48156;BME280;35568;48.104;11.782;2023-02-01T05:09:11;95738.88;;;3.03;49.41
48156;BME280;35568;48.104;11.782;2023-02-01T05:11:38;95743.86;;;3.00;49.46
48156;BME280;35568;48.104;11.782;2023-02-01T05:14:05;95747.96;;;3.05;49.26
48156;BME280;35568;48.104;11.782;2023-02-01T05:16:32;95754.30;;;3.20;49.16
48156;BME280;35568;48.104;11.782;2023-02-01T05:18:59;95751.25;;;2.85;49.40
48156;BME280;35568;48.104;11.782;2023-02-01T05:21:26;95753.07;;;2.88;49.08
48156;BME280;35568;48.104;11.782;2023-02-01T05:23:53;95749.26;;;3.15;48.82
48156;BME280;35568;48.104;11.782;2023-02-01T05:26:20;95753.87;;;2.61;49.25
48156;BME280;35568;48.104;11.782;2023-02-01T05:28:47;95751.56;;;2.97;49.32
48156;BME280;35568;48.104;11.782;2023-02-01T05:31:13;95754.53;;;3.15;49.00
48156;BME280;35568;48.104;11.782;2023-02-01T05:33:40;95748.49;;;2.75;49.30
48156;BME280;35568;48.104;11.782;2023-02-01T05:36:07;95752.52;;;2.67;49.26
48156;BME280;35568;48.104;11.782;2023-02-01T05:38:34;95760.04;;;2.97;49.02
48156;BME280;35568;48.104;11.782;2023-02-01T05:41:01;95763.67;;;3.01;48.87
48156;BME280;35568;48.104;11.782;2023-02-01T05:43:27;95761.21;;;3.37;48.48
48156;BME280;35568;48.104;11.782;2023-02-01T05:45:54;95761.52;;;3.15;48.74
48156;BME280;35568;48.104;11.782;2023-02-01T05:48:21;95755.49;;;3.02;48.64
48156;BME280;35568;48.104;11.782;2023-02-01T05:50:48;95753.68;;;2.86;48.97
48156;BME280;35568;48.104;11.782;2023-02-01T05:53:16;95740.80;;;2.61;49.25
48156;BME280;35568;48.104;11.782;2023-02-01T05:55:42;95750.40;;;2.69;49.24
48156;BME280;35568;48.104;11.782;2023-02-01T05:58:09;95732.69;;;2.56;49.57
48156;BME280;35568;48.104;11.782;2023-02-01T06:00:36;95730.31;;;2.49;49.58
48156;BME280;35568;48.104;11.782;2023-02-01T06:03:03;95736.20;;;2.81;49.31
48156;BME280;35568;48.104;11.782;2023-02-01T06:05:30;95732.39;;;2.54;49.71
48156;BME280;35568;48.104;11.782;2023-02-01T06:07:56;95737.86;;;2.49;49.55
48156;BME280;35568;48.104;11.782;2023-02-01T06:10:23;95732.80;;;2.68;49.48
48156;BME280;35568;48.104;11.782;2023-02-01T06:12:50;95728.09;;;2.68;49.28
48156;BME280;35568;48.104;11.782;2023-02-01T06:15:17;95725.91;;;2.96;48.96
48156;BME280;35568;48.104;11.782;2023-02-01T06:17:45;95706.28;;;2.88;48.99
48156;BME280;35568;48.104;11.782;2023-02-01T06:20:13;95727.90;;;2.21;49.99
48156;BME280;35568;48.104;11.782;2023-02-01T06:22:40;95734.35;;;2.38;49.92
48156;BME280;35568;48.104;11.782;2023-02-01T06:25:09;95731.69;;;2.37;49.94
48156;BME280;35568;48.104;11.782;2023-02-01T06:27:37;95737.78;;;2.36;49.65
48156;BME280;35568;48.104;11.782;2023-02-01T06:30:06;95721.53;;;2.61;49.65
48156;BME280;35568;48.104;11.782;2023-02-01T06:32:33;95732.56;;;2.29;49.75
48156;BME280;35568;48.104;11.782;2023-02-01T06:35:00;95733.84;;;2.09;49.98
48156;BME280;35568;48.104;11.782;2023-02-01T06:37:26;95747.33;;;2.21;49.89
48156;BME280;35568;48.104;11.782;2023-02-01T06:39:53;95753.34;;;2.62;50.07
48156;BME280;35568;48.104;11.782;2023-02-01T06:42:20;95746.28;;;1.88;49.90
48156;BME280;35568;48.104;11.782;2023-02-01T06:44:47;95750.47;;;2.19;49.96
48156;BME280;35568;48.104;11.782;2023-02-01T06:47:14;95740.15;;;2.00;50.51
48156;BME280;35568;48.104;11.782;2023-02-01T06:49:41;95748.01;;;2.34;50.01
48156;BME280;35568;48.104;11.782;2023-02-01T06:52:08;95747.24;;;2.44;50.18
48156;BME280;35568;48.104;11.782;2023-02-01T06:54:35;95742.74;;;2.07;50.20
48156;BME280;35568;48.104;11.782;2023-02-01T06:57:02;95748.41;;;2.46;49.64
48156;BME280;35568;48.104;11.782;2023-02-01T06:59:29;95737.24;;;2.63;49.20
48156;BME280;35568;48.104;11.782;2023-02-01T07:01:56;95745.96;;;2.56;49.45
48156;BME280;35568;48.104;11.782;2023-02-01T07:04:22;95745.12;;;2.70;49.19
48156;BME280;35568;48.104;11.782;2023-02-01T07:06:50;95750.26;;;2.66;49.35
48156;BME280;35568;48.104;11.782;2023-02-01T07:09:17;95739.71;;;2.52;49.36
48156;BME280;35568;48.104;11.782;2023-02-01T07:11:43;95734.52;;;2.81;49.00
48156;BME280;35568;48.104;11.782;2023-02-01T07:14:11;95729.67;;;2.48;49.44
48156;BME280;35568;48.104;11.782;2023-02-01T07:16:38;95737.04;;;2.64;49.27
48156;BME280;35568;48.104;11.782;2023-02-01T07:19:05;95738.59;;;2.70;49.41
48156;BME280;35568;48.104;11.782;2023-02-01T07:21:32;95728.09;;;2.68;49.28
48156;BME280;35568;48.104;11.782;2023-02-01T07:23:59;95738.52;;;2.37;49.66
48156;BME280;35568;48.104;11.782;2023-02-01T07:26:25;95745.47;;;2.51;49.94
48156;BME280;35568;48.104;11.782;2023-02-01T07:28:52;95746.52;;;2.53;49.88
48156;BME280;35568;48.104;11.782;2023-02-01T07:31:19;95742.06;;;2.85;49.29
48156;BME280;35568;48.104;11.782;2023-02-01T07:33:47;95729.22;;;2.76;49.12
48156;BME280;35568;48.104;11.782;2023-02-01T07:36:16;95709.83;;;2.49;49.16
48156;BME280;35568;48.104;11.782;2023-02-01T07:38:43;95700.56;;;2.34;49.50
48156;BME280;35568;48.104;11.782;2023-02-01T07:41:11;95709.58;;;2.59;49.33
48156;BME280;35568;48.104;11.782;2023-02-01T07:43:38;95714.41;;;2.17;49.72
48156;BME280;35568;48.104;11.782;2023-02-01T07:46:05;95698.96;;;2.01;49.96
48156;BME280;35568;48.104;11.782;2023-02-01T07:48:32;95716.36;;;2.04;49.81
48156;BME280;35568;48.104;11.782;2023-02-01T07:51:01;95710.58;;;2.75;48.83
48156;BME280;35568;48.104;11.782;2023-02-01T07:53:29;95717.07;;;2.80;48.42
48156;BME280;35568;48.104;11.782;2023-02-01T07:55:57;95719.00;;;3.22;48.14
48156;BME280;35568;48.104;11.782;2023-02-01T07:58:24;95715.33;;;3.46;47.57
48156;BME280;35568;48.104;11.782;2023-02-01T08:00:52;95715.14;;;3.33;47.22
48156;BME280;35568;48.104;11.782;2023-02-01T08:03:20;95722.28;;;3.19;47.50
48156;BME280;35568;48.104;11.782;2023-02-01T08:05:46;95724.60;;;2.79;47.51
48156;BME280;35568;48.104;11.782;2023-02-01T08:08:13;95739.19;;;3.27;47.21
48156;BME280;35568;48.104;11.782;2023-02-01T08:10:40;95748.24;;;3.08;47.33
48156;BME280;35568;48.104;11.782;2023-02-01T08:13:07;95757.39;;;3.49;46.81
48156;BME280;35568;48.104;11.782;2023-02-01T08:15:34;95758.11;;;3.60;46.29
48156;BME280;35568;48.104;11.782;2023-02-01T08:18:01;95765.10;;;3.64;45.74
48156;BME280;35568;48.104;11.782;2023-02-01T08:20:28;95762.59;;;3.64;46.01
48156;BME280;35568;48.104;11.782;2023-02-01T08:22:55;95762.69;;;3.56;46.02
48156;BME280;35568;48.104;11.782;2023-02-01T08:25:22;95769.48;;;3.38;45.95
48156;BME280;35568;48.104;11.782;2023-02-01T08:27:50;95767.15;;;3.67;45.72
48156;BME280;35568;48.104;11.782;2023-02-01T08:30:18;95773.20;;;4.05;45.17
48156;BME280;35568;48.104;11.782;2023-02-01T08:32:45;95775.88;;;3.72;45.22
48156;BME280;35568;48.104;11.782;2023-02-01T08:35:12;95782.64;;;3.95;44.79
48156;BME280;35568;48.104;11.782;2023-02-01T08:37:39;95780.21;;;4.05;44.51
48156;BME280;35568;48.104;11.782;2023-02-01T08:40:07;95772.55;;;3.46;45.43
48156;BME280;35568;48.104;11.782;2023-02-01T08:42:34;95774.54;;;3.74;44.84
48156;BME280;35568;48.104;11.782;2023-02-01T08:45:01;95778.86;;;3.93;44.48
48156;BME280;35568;48.104;11.782;2023-02-01T08:47:28;95774.70;;;3.27;45.25
48156;BME280;35568;48.104;11.782;2023-02-01T08:49:55;95768.45;;;2.93;45.45
48156;BME280;35568;48.104;11.782;2023-02-01T08:52:22;95773.28;;;3.05;45.86
48156;BME280;35568;48.104;11.782;2023-02-01T08:54:49;95772.66;;;3.50;45.10
48156;BME280;35568;48.104;11.782;2023-02-01T08:57:16;95764.49;;;3.80;45.09
48156;BME280;35568;48.104;11.782;2023-02-01T08:59:43;95769.54;;;3.60;45.12
48156;BME280;35568;48.104;11.782;2023-02-01T09:02:12;95753.49;;;3.53;44.84
48156;BME280;35568;48.104;11.782;2023-02-01T09:04:39;95750.76;;;3.08;45.03
48156;BME280;35568;48.104;11.782;2023-02-01T09:07:06;95758.03;;;3.62;44.83
48156;BME280;35568;48.104;11.782;2023-02-01T09:09:33;95767.96;;;3.67;44.24
48156;BME280;35568;48.104;11.782;2023-02-01T09:12:00;95770.77;;;3.84;44.27
48156;BME280;35568;48.104;11.782;2023-02-01T09:14:26;95773.53;;;3.49;44.15
48156;BME280;35568;48.104;11.782;2023-02-01T09:16:53;95780.28;;;3.61;44.13
48156;BME280;35568;48.104;11.782;2023-02-01T09:19:20;95787.23;;;4.27;43.62
48156;BME280;35568;48.104;11.782;2023-02-01T09:21:47;95790.68;;;4.37;43.07
48156;BME280;35568;48.104;11.782;2023-02-01T09:24:14;95781.01;;;3.68;43.45
48156;BME280;35568;48.104;11.782;2023-02-01T09:26:41;95773.76;;;3.64;44.13
48156;BME280;35568;48.104;11.782;2023-02-01T09:29:08;95779.85;;;3.91;43.63
48156;BME280;35568;48.104;11.782;2023-02-01T09:31:35;95781.36;;;4.48;43.31
48156;BME280;35568;48.104;11.782;2023-02-01T09:34:01;95773.39;;;4.60;42.95
48156;BME280;35568;48.104;11.782;2023-02-01T09:36:28;95777.11;;;5.00;42.49
48156;BME280;35568;48.104;11.782;2023-02-01T09:38:55;95781.90;;;4.90;42.32
48156;BME280;35568;48.104;11.782;2023-02-01T09:41:32;95782.08;;;4.65;41.89
48156;BME280;35568;48.104;11.782;2023-02-01T09:44:09;95782.95;;;4.46;42.82
48156;BME280;35568;48.104;11.782;2023-02-01T09:46:38;95788.72;;;4.69;42.76
48156;BME280;35568;48.104;11.782;2023-02-01T09:49:11;95776.80;;;4.46;43.21
48156;BME280;35568;48.104;11.782;2023-02-01T09:51:44;95778.75;;;4.68;42.84
48156;BME280;35568;48.104;11.782;2023-02-01T09:54:16;95794.08;;;4.57;42.66
48156;BME280;35568;48.104;11.782;2023-02-01T09:56:47;95792.90;;;4.29;43.29
48156;BME280;35568;48.104;11.782;2023-02-01T09:59:26;95798.58;;;3.83;44.11
48156;BME280;35568;48.104;11.782;2023-02-01T10:01:56;95792.14;;;4.13;43.81
48156;BME280;35568;48.104;11.782;2023-02-01T10:04:23;95790.58;;;4.18;43.98
48156;BME280;35568;48.104;11.782;2023-02-01T10:06:57;95795.81;;;4.32;43.70
48156;BME280;35568;48.104;11.782;2023-02-01T10:09:37;95794.21;;;4.71;43.56
48156;BME280;35568;48.104;11.782;2023-02-01T10:14:37;95794.44;;;5.10;42.33
48156;BME280;35568;48.104;11.782;2023-02-01T10:17:17;95767.67;;;4.81;42.78
48156;BME280;35568;48.104;11.782;2023-02-01T10:19:53;95772.60;;;5.11;42.42
48156;BME280;35568;48.104;11.782;2023-02-01T10:22:33;95793.52;;;4.68;42.82
48156;BME280;35568;48.104;11.782;2023-02-01T10:25:08;95785.97;;;4.45;43.02
48156;BME280;35568;48.104;11.782;2023-02-01T10:27:39;95779.39;;;4.52;42.96
48156;BME280;35568;48.104;11.782;2023-02-01T10:30:19;95787.35;;;5.00;42.85
48156;BME280;35568;48.104;11.782;2023-02-01T10:32:49;95778.76;;;4.91;42.56
48156;BME280;35568;48.104;11.782;2023-02-01T10:35:22;95783.35;;;4.83;42.68
48156;BME280;35568;48.104;11.782;2023-02-01T10:37:50;95783.47;;;4.57;43.32
48156;BME280;35568;48.104;11.782;2023-02-01T10:40:20;95784.44;;;4.43;43.50
48156;BME280;35568;48.104;11.782;2023-02-01T10:42:48;95785.71;;;4.09;43.53
48156;BME280;35568;48.104;11.782;2023-02-01T10:45:18;95779.35;;;4.40;43.56
48156;BME280;35568;48.104;11.782;2023-02-01T10:47:48;95782.93;;;4.24;43.25
48156;BME280;35568;48.104;11.782;2023-02-01T10:50:22;95785.25;;;4.44;43.24
48156;BME280;35568;48.104;11.782;2023-02-01T10:52:58;95785.00;;;4.40;43.45
48156;BME280;35568;48.104;11.782;2023-02-01T10:55:32;95787.48;;;4.69;43.23
48156;BME280;35568;48.104;11.782;2023-02-01T10:58:02;95793.70;;;4.92;42.96
48156;BME280;35568;48.104;11.782;2023-02-01T11:00:37;95797.94;;;4.64;42.73
48156;BME280;35568;48.104;11.782;2023-02-01T11:03:41;95789.99;;;4.55;42.97
48156;BME280;35568;48.104;11.782;2023-02-01T11:06:16;95791.65;;;4.98;43.16
48156;BME280;35568;48.104;11.782;2023-02-01T11:08:47;95790.71;;;4.63;43.64
48156;BME280;35568;48.104;11.782;2023-02-01T11:11:14;95799.44;;;4.31;43.49
48156;BME280;35568;48.104;11.782;2023-02-01T11:13:41;95795.12;;;4.23;43.93
48156;BME280;35568;48.104;11.782;2023-02-01T11:16:13;95806.64;;;3.95;44.44
48156;BME280;35568;48.104;11.782;2023-02-01T11:18:40;95798.22;;;4.04;44.36
48156;BME280;35568;48.104;11.782;2023-02-01T11:21:10;95801.38;;;4.06;44.57
48156;BME280;35568;48.104;11.782;2023-02-01T11:23:43;95807.68;;;4.04;45.12
48156;BME280;35568;48.104;11.782;2023-02-01T11:26:14;95809.57;;;3.90;45.16
48156;BME280;35568;48.104;11.782;2023-02-01T11:28:47;95810.01;;;4.45;44.67
48156;BME280;35568;48.104;11.782;2023-02-01T11:31:16;95814.98;;;4.24;44.78
48156;BME280;35568;48.104;11.782;2023-02-01T11:33:48;95811.56;;;4.51;44.23
48156;BME280;35568;48.104;11.782;2023-02-01T11:36:18;95808.50;;;4.68;44.18
48156;BME280;35568;48.104;11.782;2023-02-01T11:38:52;95802.42;;;4.58;43.97
48156;BME280;35568;48.104;11.782;2023-02-01T11:41:23;95807.19;;;4.28;44.41
48156;BME280;35568;48.104;11.782;2023-02-01T11:43:53;95804.82;;;4.06;45.33
48156;BME280;35568;48.104;11.782;2023-02-01T11:46:24;95796.43;;;3.75;45.57
48156;BME280;35568;48.104;11.782;2023-02-01T11:48:54;95809.09;;;3.70;45.35
48156;BME280;35568;48.104;11.782;2023-02-01T11:51:34;95808.20;;;3.77;45.18
48156;BME280;35568;48.104;11.782;2023-02-01T11:54:21;95802.38;;;3.80;45.18
48156;BME280;35568;48.104;11.782;2023-02-01T11:57:01;95796.47;;;3.83;45.45
48156;BME280;35568;48.104;11.782;2023-02-01T11:59:46;95788.71;;;3.56;46.06
48156;BME280;35568;48.104;11.782;2023-02-01T12:02:37;95777.65;;;3.77;45.79
48156;BME280;35568;48.104;11.782;2023-02-01T12:05:24;95781.17;;;3.81;46.44
48156;BME280;35568;48.104;11.782;2023-02-01T12:08:07;95775.58;;;3.72;46.26
48156;BME280;35568;48.104;11.782;2023-02-01T12:10:47;95773.98;;;3.07;47.05
48156;BME280;35568;48.104;11.782;2023-02-01T12:13:28;95755.10;;;3.63;46.55
48156;BME280;35568;48.104;11.782;2023-02-01T12:16:07;95754.37;;;3.64;46.15
48156;BME280;35568;48.104;11.782;2023-02-01T12:18:48;95755.29;;;3.90;45.83
48156;BME280;35568;48.104;11.782;2023-02-01T12:21:32;95760.24;;;3.77;45.51
48156;BME280;35568;48.104;11.782;2023-02-01T12:24:20;95749.03;;;4.25;45.04
48156;BME280;35568;48.104;11.782;2023-02-01T12:27:00;95740.97;;;4.28;44.86
48156;BME280;35568;48.104;11.782;2023-02-01T12:29:42;95750.95;;;3.91;45.36
48156;BME280;35568;48.104;11.782;2023-02-01T12:32:26;95748.65;;;3.97;45.54
48156;BME280;35568;48.104;11.782;2023-02-01T12:35:13;95739.42;;;3.96;45.27
48156;BME280;35568;48.104;11.782;2023-02-01T12:37:52;95742.37;;;3.78;45.07
48156;BME280;35568;48.104;11.782;2023-02-01T12:40:31;95743.31;;;4.01;44.97
48156;BME280;35568;48.104;11.782;2023-02-01T12:43:04;95752.41;;;3.67;45.13
48156;BME280;35568;48.104;11.782;2023-02-01T12:45:39;95747.29;;;3.75;45.37
48156;BME280;35568;48.104;11.782;2023-02-01T12:48:20;95742.51;;;3.63;44.72
48156;BME280;35568;48.104;11.782;2023-02-01T12:50:52;95743.43;;;3.93;44.75
48156;BME280;35568;48.104;11.782;2023-02-01T12:53:23;95743.91;;;3.68;44.54
48156;BME280;35568;48.104;11.782;2023-02-01T12:55:54;95735.64;;;3.54;44.55
48156;BME280;35568;48.104;11.782;2023-02-01T12:58:24;95740.67;;;3.88;44.55
48156;BME280;35568;48.104;11.782;2023-02-01T13:00:58;95731.63;;;3.34;44.66
48156;BME280;35568;48.104;11.782;2023-02-01T13:03:35;95724.99;;;3.61;44.86
48156;BME280;35568;48.104;11.782;2023-02-01T13:06:07;95723.44;;;3.76;44.18
48156;BME280;35568;48.104;11.782;2023-02-01T13:08:42;95719.74;;;3.96;44.11
48156;BME280;35568;48.104;11.782;2023-02-01T13:11:13;95715.28;;;3.83;43.95
48156;BME280;35568;48.104;11.782;2023-02-01T13:13:48;95715.42;;;4.28;43.47
48156;BME280;35568;48.104;11.782;2023-02-01T13:16:21;95718.45;;;3.98;43.00
48156;BME280;35568;48.104;11.782;2023-02-01T13:18:52;95708.36;;;3.97;43.10
48156;BME280;35568;48.104;11.782;2023-02-01T13:21:25;95708.23;;;4.27;42.72